createdAt,value
2022-10-09T00:01:13.988Z,102379.66
2022-10-09T00:03:43.614Z,102379.59
2022-10-09T00:06:14.947Z,102379.53
2022-10-09T00:08:43.867Z,102375.91
2022-10-09T00:11:13.974Z,102383.00
2022-10-09T00:13:43.360Z,102384.75
2022-10-09T00:16:14.466Z,102382.03
2022-10-09T00:18:43.213Z,102384.66
2022-10-09T00:21:19.060Z,102383.69
2022-10-09T00:23:46.813Z,102386.38
2022-10-09T00:26:14.554Z,102387.22
2022-10-09T00:28:43.714Z,102388.97
2022-10-09T00:31:12.758Z,102389.81
2022-10-09T00:33:40.796Z,102387.09
2022-10-09T00:36:10.811Z,102396.78
2022-10-09T00:38:38.583Z,102390.53
2022-10-09T00:41:06.667Z,102386.06
2022-10-09T00:43:41.710Z,102393.97
2022-10-09T00:46:19.976Z,102394.75
2022-10-09T00:49:01.300Z,102395.63
2022-10-09T00:51:30.758Z,102390.25
2022-10-09T00:53:59.714Z,102391.06
2022-10-09T00:56:27.775Z,102389.22
2022-10-09T00:58:58.639Z,102394.53
2022-10-09T01:01:27.849Z,102392.78
2022-10-09T01:03:55.511Z,102389.22
2022-10-09T01:06:31.478Z,102393.59
2022-10-09T01:09:04.972Z,102388.19
2022-10-09T01:11:40.566Z,102394.38
2022-10-09T01:14:19.403Z,102389.84
2022-10-09T01:16:57.817Z,102397.81
2022-10-09T01:19:41.990Z,102392.41
2022-10-09T01:22:20.906Z,102395.00
2022-10-09T01:24:56.157Z,102386.94
2022-10-09T01:27:27.163Z,102382.38
2022-10-09T01:29:57.712Z,102389.47
2022-10-09T01:32:30.632Z,102377.03
2022-10-09T01:34:59.703Z,102379.69
2022-10-09T01:37:29.647Z,102370.81
2022-10-09T01:39:58.348Z,102372.50
2022-10-09T01:42:29.734Z,102372.47
2022-10-09T01:44:57.428Z,102369.78
2022-10-09T01:47:25.495Z,102372.31
2022-10-09T01:49:59.206Z,102366.91
2022-10-09T01:52:46.313Z,102369.59
2022-10-09T01:55:26.680Z,102358.88
2022-10-09T01:58:01.327Z,102366.88
2022-10-09T02:00:34.098Z,102359.72
2022-10-09T02:03:03.635Z,102354.38
2022-10-09T02:05:32.919Z,102350.75
2022-10-09T02:08:01.034Z,102347.25
2022-10-09T02:10:29.047Z,102348.06
2022-10-09T02:13:00.645Z,102348.88
2022-10-09T02:15:33.805Z,102348.88
2022-10-09T02:18:06.180Z,102357.69
2022-10-09T02:20:37.014Z,102347.94
2022-10-09T02:23:08.511Z,102336.31
2022-10-09T02:25:36.812Z,102345.16
2022-10-09T02:28:08.024Z,102350.44
2022-10-09T02:30:45.362Z,102350.38
2022-10-09T02:33:13.043Z,102338.81
2022-10-09T02:35:41.102Z,102337.91
2022-10-09T02:38:08.691Z,102338.72
2022-10-09T02:40:36.286Z,102344.03
2022-10-09T02:43:03.972Z,102337.84
2022-10-09T02:45:32.998Z,102335.97
2022-10-09T02:48:00.625Z,102341.31
2022-10-09T02:50:30.856Z,102333.31
2022-10-09T02:52:58.486Z,102339.53
2022-10-09T02:55:26.167Z,102335.09
2022-10-09T02:57:53.766Z,102333.28
2022-10-09T03:00:21.816Z,102333.25
2022-10-09T03:02:51.299Z,102339.38
2022-10-09T03:05:19.328Z,102335.81
2022-10-09T03:07:51.360Z,102332.25
2022-10-09T03:10:19.867Z,102330.47
2022-10-09T03:12:48.485Z,102332.19
2022-10-09T03:15:16.438Z,102333.00
2022-10-09T03:17:44.146Z,102331.25
2022-10-09T03:20:13.175Z,102332.09
2022-10-09T03:22:40.887Z,102327.56
2022-10-09T03:25:09.116Z,102331.94
2022-10-09T03:27:36.803Z,102328.25
2022-10-09T03:30:05.181Z,102327.34
2022-10-09T03:32:33.109Z,102332.69
2022-10-09T03:35:00.796Z,102327.34
2022-10-09T03:37:29.875Z,102327.34
2022-10-09T03:39:57.515Z,102330.81
2022-10-09T03:42:25.465Z,102335.19
2022-10-09T03:44:53.118Z,102329.88
2022-10-09T03:47:20.842Z,102333.47
2022-10-09T03:49:48.625Z,102325.47
2022-10-09T03:52:16.266Z,102329.88
2022-10-09T03:54:45.403Z,102326.34
2022-10-09T03:57:13.217Z,102329.78
2022-10-09T03:59:40.897Z,102333.19
2022-10-09T04:02:08.644Z,102334.88
2022-10-09T04:04:36.324Z,102321.50
2022-10-09T04:07:04.039Z,102326.84
2022-10-09T04:09:31.704Z,102332.22
2022-10-09T04:12:00.760Z,102324.28
2022-10-09T04:14:28.397Z,102326.09
2022-10-09T04:16:56.063Z,102327.81
2022-10-09T04:19:23.703Z,102326.00
2022-10-09T04:21:51.416Z,102323.22
2022-10-09T04:24:19.250Z,102322.25
2022-10-09T04:26:46.892Z,102322.22
2022-10-09T04:29:16.190Z,102325.72
2022-10-09T04:31:43.890Z,102323.94
2022-10-09T04:34:11.603Z,102315.84
2022-10-09T04:36:39.254Z,102319.34
2022-10-09T04:39:07.113Z,102321.97
2022-10-09T04:41:38.096Z,102329.06
2022-10-09T04:44:06.896Z,102324.59
2022-10-09T04:46:35.949Z,102321.03
2022-10-09T04:49:03.691Z,102323.69
2022-10-09T04:51:31.684Z,102315.72
2022-10-09T04:54:00.740Z,102316.53
2022-10-09T04:56:28.831Z,102319.19
2022-10-09T04:58:56.509Z,102312.97
2022-10-09T05:01:26.721Z,102314.66
2022-10-09T05:03:56.723Z,102311.88
2022-10-09T05:06:25.282Z,102310.06
2022-10-09T05:08:54.110Z,102311.00
2022-10-09T05:11:23.546Z,102313.66
2022-10-09T05:13:53.700Z,102309.97
2022-10-09T05:16:23.180Z,102305.44
2022-10-09T05:18:53.895Z,102303.78
2022-10-09T05:21:23.755Z,102300.22
2022-10-09T05:23:52.057Z,102306.47
2022-10-09T05:26:22.145Z,102310.91
2022-10-09T05:28:50.248Z,102305.59
2022-10-09T05:31:21.152Z,102312.59
2022-10-09T05:33:49.437Z,102313.44
2022-10-09T05:36:18.026Z,102307.19
2022-10-09T05:38:47.247Z,102313.41
2022-10-09T05:41:16.654Z,102315.13
2022-10-09T05:43:46.176Z,102313.34
2022-10-09T05:46:15.252Z,102317.78
2022-10-09T05:48:45.486Z,102315.13
2022-10-09T05:51:14.620Z,102309.78
2022-10-09T05:53:43.535Z,102312.44
2022-10-09T05:56:14.987Z,102311.56
2022-10-09T05:58:43.450Z,102313.31
2022-10-09T06:01:11.748Z,102309.78
2022-10-09T06:03:39.692Z,102317.81
2022-10-09T06:06:09.425Z,102318.72
2022-10-09T06:08:38.191Z,102314.38
2022-10-09T06:11:10.705Z,102313.56
2022-10-09T06:13:39.825Z,102315.38
2022-10-09T06:16:07.883Z,102317.19
2022-10-09T06:18:35.634Z,102317.25
2022-10-09T06:21:03.644Z,102314.66
2022-10-09T06:23:32.095Z,102321.88
2022-10-09T06:26:01.656Z,102322.00
2022-10-09T06:28:29.560Z,102315.00
2022-10-09T06:31:03.674Z,102318.59
2022-10-09T06:33:33.121Z,102322.34
2022-10-09T06:36:09.768Z,102310.94
2022-10-09T06:38:38.677Z,102307.50
2022-10-09T06:41:08.438Z,102310.28
2022-10-09T06:43:36.435Z,102315.69
2022-10-09T06:46:07.257Z,102313.19
2022-10-09T06:48:36.640Z,102317.75
2022-10-09T06:51:06.632Z,102310.78
2022-10-09T06:53:35.512Z,102311.00
2022-10-09T06:56:03.230Z,102319.19
2022-10-09T06:58:34.119Z,102313.19
2022-10-09T07:01:08.371Z,102315.19
2022-10-09T07:03:36.626Z,102318.03
2022-10-09T07:06:09.143Z,102323.53
2022-10-09T07:08:37.093Z,102313.81
2022-10-09T07:11:12.485Z,102314.72
2022-10-09T07:13:43.121Z,102310.41
2022-10-09T07:16:12.559Z,102316.88
2022-10-09T07:18:40.786Z,102307.19
2022-10-09T07:21:10.108Z,102322.50
2022-10-09T07:23:38.132Z,102316.41
2022-10-09T07:26:12.094Z,102319.25
2022-10-09T07:28:42.491Z,102319.44
2022-10-09T07:31:12.804Z,102316.00
2022-10-09T07:33:41.754Z,102311.69
2022-10-09T07:36:10.850Z,102318.06
2022-10-09T07:38:39.006Z,102309.28
2022-10-09T07:41:08.641Z,102314.81
2022-10-09T07:43:37.108Z,102318.50
2022-10-09T07:46:07.012Z,102324.03
2022-10-09T07:48:36.869Z,102317.09
2022-10-09T07:51:09.605Z,102326.16
2022-10-09T07:53:37.348Z,102316.56
2022-10-09T07:56:05.838Z,102317.59
2022-10-09T07:58:33.915Z,102309.66
2022-10-09T08:01:06.003Z,102300.06
2022-10-09T08:03:34.351Z,102305.53
2022-10-09T08:06:03.616Z,102303.88
2022-10-09T08:08:31.593Z,102294.19
2022-10-09T08:10:59.318Z,102299.69
2022-10-09T08:13:27.052Z,102297.16
2022-10-09T08:15:54.787Z,102301.78
2022-10-09T08:18:22.476Z,102297.47
2022-10-09T08:20:58.582Z,102297.56
2022-10-09T08:23:28.022Z,102296.00
2022-10-09T08:25:56.134Z,102291.69
2022-10-09T08:28:24.085Z,102290.97
2022-10-09T08:30:52.011Z,102288.50
2022-10-09T08:33:22.040Z,102286.88
2022-10-09T08:35:50.096Z,102284.31
2022-10-09T08:38:37.661Z,102286.22
2022-10-09T08:41:10.421Z,102288.16
2022-10-09T08:43:41.962Z,102278.44
2022-10-09T08:46:20.979Z,102280.34
2022-10-09T08:48:51.318Z,102286.75
2022-10-09T08:51:24.344Z,102276.19
2022-10-09T08:54:31.724Z,102278.09
2022-10-09T08:57:06.131Z,102278.22
2022-10-09T08:59:34.275Z,102265.81
2022-10-09T09:02:16.730Z,102262.34
2022-10-09T09:05:04.936Z,102253.50
2022-10-09T09:07:45.946Z,102249.16
2022-10-09T09:10:25.303Z,102252.81
2022-10-09T09:13:03.101Z,102248.44
2022-10-09T09:15:47.275Z,102244.06
2022-10-09T09:18:46.056Z,102245.00
2022-10-09T09:21:44.555Z,102249.56
2022-10-09T09:24:50.057Z,102237.09
2022-10-09T09:27:22.204Z,102234.44
2022-10-09T09:29:57.476Z,102223.75
2022-10-09T09:32:28.838Z,102225.59
2022-10-09T09:35:06.470Z,102214.91
2022-10-09T09:37:34.362Z,102217.63
2022-10-09T09:40:35.387Z,102215.88
2022-10-09T09:42:57.103Z,102215.03
2022-10-09T09:45:27.822Z,102214.16
2022-10-09T09:47:58.871Z,102200.72
2022-10-09T09:50:48.551Z,102203.44
2022-10-09T09:53:28.525Z,102191.78
2022-10-09T09:55:57.392Z,102193.59
2022-10-09T09:58:33.205Z,102190.88
2022-10-09T10:01:04.327Z,102188.19
2022-10-09T10:03:36.083Z,102181.94
2022-10-09T10:06:04.339Z,102169.34
2022-10-09T10:08:47.161Z,102172.94
2022-10-09T10:11:19.270Z,102167.53
2022-10-09T10:13:49.656Z,102164.88
2022-10-09T10:16:24.949Z,102159.47
2022-10-09T10:18:56.931Z,102157.63
2022-10-09T10:21:25.437Z,102150.47
2022-10-09T10:23:58.859Z,102147.78
2022-10-09T10:26:37.238Z,102145.03
2022-10-09T10:29:23.012Z,102154.00
2022-10-09T10:32:00.793Z,102146.75
2022-10-09T10:34:33.089Z,102141.38
2022-10-09T10:37:11.057Z,102136.84
2022-10-09T10:39:44.883Z,102134.13
2022-10-09T10:42:20.596Z,102129.63
2022-10-09T10:44:53.620Z,102117.94
2022-10-09T10:47:28.410Z,102122.38
2022-10-09T10:49:56.659Z,102120.56
2022-10-09T10:52:42.046Z,102120.53
2022-10-09T10:55:26.808Z,102113.28
2022-10-09T10:58:13.702Z,102115.97
2022-10-09T11:00:50.607Z,102106.94
2022-10-09T11:03:35.198Z,102097.91
2022-10-09T11:06:09.561Z,102094.25
2022-10-09T11:08:52.780Z,102092.41
2022-10-09T11:11:24.448Z,102082.47
2022-10-09T11:14:00.685Z,102078.84
2022-10-09T11:16:48.570Z,102081.47
2022-10-09T11:19:49.496Z,102073.34
2022-10-09T11:22:33.984Z,102080.53
2022-10-09T11:25:13.947Z,102066.97
2022-10-09T11:27:50.194Z,102056.13
2022-10-09T11:30:19.855Z,102053.34
2022-10-09T11:32:56.143Z,102056.00
2022-10-09T11:35:26.548Z,102055.03
2022-10-09T11:38:08.073Z,102046.91
2022-10-09T11:40:40.637Z,102039.69
2022-10-09T11:43:28.561Z,102043.22
2022-10-09T11:46:03.021Z,102037.75
2022-10-09T11:48:38.800Z,102039.56
2022-10-09T11:51:20.292Z,102030.50
2022-10-09T11:53:55.937Z,102025.94
2022-10-09T11:56:25.988Z,102016.91
2022-10-09T11:58:58.590Z,102013.28
2022-10-09T12:01:32.873Z,102001.53
2022-10-09T12:04:07.802Z,102005.09
2022-10-09T12:06:50.611Z,101999.69
2022-10-09T12:09:25.970Z,101992.47
2022-10-09T12:11:59.595Z,101983.38
2022-10-09T12:14:33.372Z,101977.06
2022-10-09T12:17:01.641Z,101973.41
2022-10-09T12:19:36.165Z,101962.53
2022-10-09T12:22:08.872Z,101950.78
2022-10-09T12:24:46.652Z,101956.16
2022-10-09T12:27:21.658Z,101944.38
2022-10-09T12:29:56.989Z,101950.59
2022-10-09T12:32:29.308Z,101943.34
2022-10-09T12:34:58.222Z,101941.63
2022-10-09T12:37:36.589Z,101938.91
2022-10-09T12:40:09.901Z,101942.41
2022-10-09T12:42:37.894Z,101933.25
2022-10-09T12:45:06.492Z,101926.06
2022-10-09T12:47:36.339Z,101922.41
2022-10-09T12:50:33.671Z,101917.91
2022-10-09T12:53:07.022Z,101913.34
2022-10-09T12:55:49.097Z,101899.88
2022-10-09T12:58:31.220Z,101898.06
2022-10-09T13:01:12.896Z,101898.03
2022-10-09T13:03:48.375Z,101892.53
2022-10-09T13:06:25.463Z,101894.31
2022-10-09T13:09:05.323Z,101885.22
2022-10-09T13:11:42.816Z,101885.22
2022-10-09T13:14:30.965Z,101885.22
2022-10-09T13:17:02.697Z,101881.59
2022-10-09T13:19:38.333Z,101880.63
2022-10-09T13:22:21.862Z,101862.63
2022-10-09T13:24:54.288Z,101864.38
2022-10-09T13:27:22.318Z,101860.72
2022-10-09T13:29:50.633Z,101854.41
2022-10-09T13:32:21.001Z,101848.06
2022-10-09T13:34:50.167Z,101851.63
2022-10-09T13:37:20.330Z,101846.16
2022-10-09T13:39:48.744Z,101840.78
2022-10-09T13:42:29.814Z,101829.06
2022-10-09T13:45:00.314Z,101833.53
2022-10-09T13:47:29.785Z,101826.38
2022-10-09T13:50:01.988Z,101820.03
2022-10-09T13:52:30.139Z,101820.03
2022-10-09T13:54:58.110Z,101820.94
2022-10-09T13:57:32.692Z,101821.81
2022-10-09T14:00:00.544Z,101811.91
2022-10-09T14:02:32.285Z,101810.09
2022-10-09T14:05:02.822Z,101799.31
2022-10-09T14:07:32.101Z,101801.97
2022-10-09T14:10:03.647Z,101793.81
2022-10-09T14:12:35.826Z,101783.88
2022-10-09T14:15:05.001Z,101784.69
2022-10-09T14:17:34.769Z,101787.41
2022-10-09T14:20:06.101Z,101777.50
2022-10-09T14:22:33.898Z,101779.38
2022-10-09T14:25:01.672Z,101771.31
2022-10-09T14:27:30.938Z,101769.50
2022-10-09T14:30:02.611Z,101765.00
2022-10-09T14:32:30.672Z,101767.72
2022-10-09T14:34:58.598Z,101752.44
2022-10-09T14:37:42.466Z,101760.56
2022-10-09T14:40:11.496Z,101754.22
2022-10-09T14:42:39.755Z,101744.41
2022-10-09T14:45:10.564Z,101747.06
2022-10-09T14:47:38.380Z,101742.66
2022-10-09T14:50:06.919Z,101738.19
2022-10-09T14:52:34.769Z,101737.31
2022-10-09T14:55:02.745Z,101729.22
2022-10-09T14:57:35.152Z,101722.13
2022-10-09T15:00:05.005Z,101725.72
2022-10-09T15:02:34.328Z,101724.84
2022-10-09T15:05:02.226Z,101709.63
2022-10-09T15:07:31.504Z,101703.38
2022-10-09T15:09:59.472Z,101706.19
2022-10-09T15:12:27.216Z,101703.47
2022-10-09T15:14:55.010Z,101695.41
2022-10-09T15:17:22.709Z,101693.63
2022-10-09T15:19:55.370Z,101688.31
2022-10-09T15:22:23.320Z,101691.94
2022-10-09T15:24:58.227Z,101682.13
2022-10-09T15:27:26.200Z,101675.94
2022-10-09T15:29:54.236Z,101671.47
2022-10-09T15:32:22.127Z,101670.59
2022-10-09T15:34:51.294Z,101667.94
2022-10-09T15:37:19.097Z,101666.16
2022-10-09T15:39:46.929Z,101663.50
2022-10-09T15:42:14.723Z,101653.66
2022-10-09T15:44:49.680Z,101647.47
2022-10-09T15:47:27.169Z,101647.53
2022-10-09T15:50:14.823Z,101649.44
2022-10-09T15:52:42.542Z,101643.13
2022-10-09T15:55:10.469Z,101641.41
2022-10-09T15:57:38.200Z,101638.81
2022-10-09T16:00:07.235Z,101645.19
2022-10-09T16:02:34.954Z,101639.84
2022-10-09T16:05:02.770Z,101629.13
2022-10-09T16:07:32.052Z,101626.56
2022-10-09T16:09:59.956Z,101628.38
2022-10-09T16:12:27.890Z,101625.78
2022-10-09T16:14:55.737Z,101621.38
2022-10-09T16:17:28.701Z,101621.47
2022-10-09T16:19:59.082Z,101622.47
2022-10-09T16:22:27.115Z,101615.38
2022-10-09T16:24:56.299Z,101617.25
2022-10-09T16:27:24.016Z,101620.03
2022-10-09T16:29:52.195Z,101630.00
2022-10-09T16:32:23.379Z,101618.44
2022-10-09T16:34:57.122Z,101612.22
2022-10-09T16:37:29.603Z,101619.53
2022-10-09T16:40:03.047Z,101616.94
2022-10-09T16:42:33.899Z,101618.84
2022-10-09T16:45:04.545Z,101609.94
2022-10-09T16:47:37.360Z,101607.38
2022-10-09T16:50:49.318Z,101602.94
2022-10-09T16:53:23.984Z,101608.47
2022-10-09T16:55:54.973Z,101604.94
2022-10-09T16:58:27.128Z,101603.25
2022-10-09T17:01:03.942Z,101595.31
2022-10-09T17:03:35.603Z,101608.81
2022-10-09T17:06:08.287Z,101603.53
2022-10-09T17:08:36.001Z,101603.59
2022-10-09T17:11:07.271Z,101596.50
2022-10-09T17:13:35.161Z,101598.38
2022-10-09T17:16:13.280Z,101602.06
2022-10-09T17:18:45.990Z,101597.69
2022-10-09T17:21:14.470Z,101599.56
2022-10-09T17:23:42.515Z,101598.81
2022-10-09T17:26:18.516Z,101599.78
2022-10-09T17:28:49.504Z,101592.72
2022-10-09T17:31:19.475Z,101592.78
2022-10-09T17:33:49.509Z,101592.94
2022-10-09T17:36:20.331Z,101603.78
2022-10-09T17:38:49.967Z,101604.81
2022-10-09T17:41:21.339Z,101606.63
2022-10-09T17:43:49.183Z,101600.44
2022-10-09T17:46:22.975Z,101604.94
2022-10-09T17:48:54.664Z,101603.19
2022-10-09T17:51:26.967Z,101605.97
2022-10-09T17:54:03.315Z,101605.13
2022-10-09T17:56:34.858Z,101607.00
2022-10-09T17:59:03.753Z,101607.03
2022-10-09T18:01:32.400Z,101601.72
2022-10-09T18:04:00.727Z,101596.41
2022-10-09T18:06:34.055Z,101602.72
2022-10-09T18:09:40.390Z,101600.97
2022-10-09T18:12:09.683Z,101592.09
2022-10-09T18:14:40.670Z,101591.25
2022-10-09T18:17:16.114Z,101583.22
2022-10-09T18:19:48.988Z,101585.97
2022-10-09T18:22:16.861Z,101585.09
2022-10-09T18:24:44.879Z,101578.91
2022-10-09T18:27:14.003Z,101590.50
2022-10-09T18:29:41.829Z,101583.38
2022-10-09T18:32:14.006Z,101582.53
2022-10-09T18:34:46.227Z,101587.91
2022-10-09T18:37:15.223Z,101585.25
2022-10-09T18:39:43.083Z,101587.06
2022-10-09T18:42:10.765Z,101583.50
2022-10-09T18:44:41.606Z,101576.34
2022-10-09T18:47:14.443Z,101571.88
2022-10-09T18:49:45.355Z,101575.53
2022-10-09T18:52:14.164Z,101578.19
2022-10-09T18:54:43.457Z,101569.28
2022-10-09T18:57:11.455Z,101571.09
2022-10-09T18:59:41.129Z,101572.88
2022-10-09T19:02:09.934Z,101565.72
2022-10-09T19:04:37.710Z,101564.84
2022-10-09T19:07:10.272Z,101560.41
2022-10-09T19:09:45.246Z,101561.28
2022-10-09T19:12:12.998Z,101555.03
2022-10-09T19:14:42.127Z,101552.34
2022-10-09T19:17:10.033Z,101551.44
2022-10-09T19:19:37.941Z,101555.00
2022-10-09T19:22:06.047Z,101552.31
2022-10-09T19:24:34.480Z,101548.78
2022-10-09T19:27:03.455Z,101551.47
2022-10-09T19:29:31.303Z,101542.50
2022-10-09T19:32:00.422Z,101547.91
2022-10-09T19:34:28.520Z,101552.38
2022-10-09T19:36:56.290Z,101546.13
2022-10-09T19:39:24.151Z,101546.13
2022-10-09T19:41:52.168Z,101540.81
2022-10-09T19:44:21.064Z,101539.94
2022-10-09T19:46:48.925Z,101542.63
2022-10-09T19:49:18.106Z,101535.50
2022-10-09T19:51:46.415Z,101536.38
2022-10-09T19:54:14.366Z,101534.59
2022-10-09T19:56:42.097Z,101542.63
2022-10-09T19:59:10.212Z,101532.81
2022-10-09T20:01:40.327Z,101536.44
2022-10-09T20:04:11.588Z,101534.66
2022-10-09T20:06:42.412Z,101535.56
2022-10-09T20:09:11.923Z,101528.44
2022-10-09T20:11:39.736Z,101523.09
2022-10-09T20:14:07.718Z,101525.75
2022-10-09T20:16:35.575Z,101525.78
2022-10-09T20:19:04.161Z,101524.94
2022-10-09T20:21:33.537Z,101529.38
2022-10-09T20:24:02.855Z,101521.38
2022-10-09T20:26:33.188Z,101527.63
2022-10-09T20:29:02.141Z,101516.03
2022-10-09T20:31:30.456Z,101508.91
2022-10-09T20:33:59.520Z,101510.69
2022-10-09T20:36:29.944Z,101506.25
2022-10-09T20:38:58.865Z,101508.91
2022-10-09T20:41:29.149Z,101513.41
2022-10-09T20:43:58.659Z,101505.34
2022-10-09T20:46:28.035Z,101517.84
2022-10-09T20:48:56.176Z,101513.41
2022-10-09T20:51:24.359Z,101509.81
2022-10-09T20:53:52.851Z,101502.69
2022-10-09T20:56:21.683Z,101508.97
2022-10-09T20:58:50.945Z,101503.59
2022-10-09T21:01:19.101Z,101500.03
2022-10-09T21:03:47.194Z,101500.94
2022-10-09T21:06:18.476Z,101496.47
2022-10-09T21:08:46.512Z,101499.16
2022-10-09T21:11:17.151Z,101493.81
2022-10-09T21:13:45.813Z,101495.59
2022-10-09T21:16:17.387Z,101485.78
2022-10-09T21:18:45.165Z,101485.78
2022-10-09T21:21:15.350Z,101490.22
2022-10-09T21:23:44.176Z,101484.00
2022-10-09T21:26:14.076Z,101479.53
2022-10-09T21:28:42.301Z,101474.19
2022-10-09T21:31:11.161Z,101478.63
2022-10-09T21:33:43.632Z,101467.06
2022-10-09T21:36:12.144Z,101471.50
2022-10-09T21:38:40.154Z,101471.50
2022-10-09T21:41:07.934Z,101469.69
2022-10-09T21:43:35.676Z,101465.28
2022-10-09T21:46:03.522Z,101467.03
2022-10-09T21:48:31.762Z,101464.34
2022-10-09T21:51:01.022Z,101462.56
2022-10-09T21:53:28.727Z,101462.56
2022-10-09T21:55:56.470Z,101467.91
2022-10-09T21:58:24.529Z,101455.44
2022-10-09T22:00:57.015Z,101448.31
2022-10-09T22:03:25.416Z,101456.31
2022-10-09T22:05:53.155Z,101442.94
2022-10-09T22:08:22.803Z,101450.97
2022-10-09T22:10:50.645Z,101442.94
2022-10-09T22:13:19.761Z,101442.94
2022-10-09T22:15:50.909Z,101439.34
2022-10-09T22:18:19.264Z,101436.69
2022-10-09T22:20:50.700Z,101447.38
2022-10-09T22:23:20.598Z,101444.69
2022-10-09T22:25:58.794Z,101434.00
2022-10-09T22:28:26.720Z,101435.75
2022-10-09T22:31:06.174Z,101427.75
2022-10-09T22:33:34.793Z,101442.03
2022-10-09T22:36:07.918Z,101432.22
2022-10-09T22:38:36.229Z,101428.63
2022-10-09T22:41:08.670Z,101425.06
2022-10-09T22:43:37.102Z,101425.94
2022-10-09T22:46:12.214Z,101421.53
2022-10-09T22:48:40.624Z,101420.59
2022-10-09T22:51:10.739Z,101418.84
2022-10-09T22:53:41.580Z,101417.94
2022-10-09T22:56:14.210Z,101419.69
2022-10-09T22:58:42.057Z,101409.00
2022-10-09T23:01:13.040Z,101409.88
2022-10-09T23:03:41.186Z,101420.56
2022-10-09T23:06:11.138Z,101414.34
2022-10-09T23:08:39.844Z,101409.88
2022-10-09T23:11:07.836Z,101407.22
2022-10-09T23:13:37.118Z,101409.84
2022-10-09T23:16:06.709Z,101398.28
2022-10-09T23:18:36.763Z,101399.16
2022-10-09T23:21:05.388Z,101392.94
2022-10-09T23:23:34.157Z,101394.69
2022-10-09T23:26:05.193Z,101393.81
2022-10-09T23:28:34.266Z,101392.03
2022-10-09T23:31:04.771Z,101384.94
2022-10-09T23:33:33.157Z,101372.47
2022-10-09T23:36:03.143Z,101370.69
2022-10-09T23:38:30.872Z,101375.16
2022-10-09T23:40:58.848Z,101374.25
2022-10-09T23:43:26.859Z,101369.81
2022-10-09T23:45:56.700Z,101369.81
2022-10-09T23:48:26.257Z,101362.69
2022-10-09T23:50:55.236Z,101375.16
2022-10-09T23:53:24.467Z,101365.34
2022-10-09T23:55:52.758Z,101370.66
2022-10-09T23:58:21.138Z,101367.97
